Milford, Connecticut
Current Conditions -  °F | °C
As of 10:52 AM on Friday 24 Oct 2014 (Local Time) from KBDR Reporting Station
Broken Clouds Broken Clouds  
Wind Chill: 54°   Ceiling: 2000
Heat Index: 54°   Visibility: 10mi
Dew Point: 47°   Wind: 12mph
Humidity: 77%   Direction: 330°NNW
Pressure: 29.79"   Gusts: 24mph
Location:  41.23°N, 73.06°W
Report Text: KBDR 241452Z 33010G21KT 10SM BKN020 12/08 A2979 RMK AO2 SLP087 60008 T01220083 50001
Loading
Personal Weather Stations






























Interactive Weather Map
Tropical Storm Tracking
New forecast layout! Learn more

10-Day Weather Forecast

Advertisements
Track Severe Weather on mobile